Time;durP1;ratioP1;P1;durP2;ratioP2;P2;SDS_P1;SDS_P2;PMS_P1;PMS_P2;Temp;Humidity;BMP_temperature;BMP_pressure;BME280_temperature;BME280_humidity;BME280_pressure;Samples;Min_cycle;Max_cycle;Signal;HPM_P1;HPM_P2
2022/07/13 00:02:10;;;;;;;2.10;0.98;;;23.50;64.80;;;;;;4492173;31;20383;-67
2022/07/13 00:04:36;;;;;;;7.57;1.20;;;23.50;64.80;;;;;;4492015;31;20227;-68
2022/07/13 00:07:02;;;;;;;1.45;1.35;;;23.50;64.80;;;;;;4491881;31;20084;-68
2022/07/13 00:09:28;;;;;;;2.92;0.98;;;23.50;64.80;;;;;;4491750;31;20077;-68
2022/07/13 00:11:54;;;;;;;1.20;1.10;;;23.50;64.80;;;;;;4491826;31;20069;-67
2022/07/13 00:14:20;;;;;;;1.98;1.17;;;23.50;64.80;;;;;;4492032;31;20080;-67
2022/07/13 00:16:45;;;;;;;1.52;1.02;;;23.50;64.80;;;;;;4477606;31;20080;-67
2022/07/13 00:19:11;;;;;;;1.50;1.13;;;23.50;64.80;;;;;;4492019;31;20351;-67
2022/07/13 00:21:37;;;;;;;1.73;1.00;;;23.50;64.80;;;;;;4491984;31;20231;-68
2022/07/13 00:24:03;;;;;;;1.63;0.90;;;23.50;64.80;;;;;;4477828;32;20402;-68
2022/07/13 00:26:29;;;;;;;1.00;1.00;;;23.50;64.80;;;;;;4492188;32;20080;-67
2022/07/13 00:28:54;;;;;;;1.15;1.05;;;23.50;64.80;;;;;;4491674;32;20139;-67
2022/07/13 00:31:20;;;;;;;1.85;1.20;;;23.50;64.80;;;;;;4492165;32;20069;-68
2022/07/13 00:33:46;;;;;;;1.05;0.90;;;23.50;64.80;;;;;;4477702;32;20395;-68
2022/07/13 00:36:12;;;;;;;1.20;1.10;;;23.50;64.80;;;;;;4491800;32;20531;-67
2022/07/13 00:38:38;;;;;;;1.67;1.02;;;23.50;64.80;;;;;;4491682;32;20398;-67
2022/07/13 00:41:05;;;;;;;1.05;0.90;;;23.40;64.80;;;;;;4477589;32;20084;-68
2022/07/13 00:43:31;;;;;;;1.20;1.00;;;23.40;64.80;;;;;;4491806;32;20088;-68
2022/07/13 00:45:57;;;;;;;0.88;0.88;;;23.40;64.70;;;;;;4491807;32;20197;-67
2022/07/13 00:48:23;;;;;;;1.35;1.00;;;23.40;64.70;;;;;;4491666;32;20089;-67
2022/07/13 00:50:50;;;;;;;1.30;1.10;;;23.40;64.70;;;;;;4491772;32;20091;-67
2022/07/13 00:53:17;;;;;;;1.10;1.00;;;23.40;64.70;;;;;;4491768;32;20081;-67
2022/07/13 00:55:44;;;;;;;1.52;0.90;;;23.40;64.70;;;;;;4477686;32;20136;-67
2022/07/13 00:58:10;;;;;;;0.80;0.80;;;23.40;64.70;;;;;;4491739;32;20084;-67
2022/07/13 01:00:36;;;;;;;1.02;0.93;;;23.40;64.70;;;;;;4494005;31;20073;-70
2022/07/13 01:03:02;;;;;;;1.10;1.00;;;23.40;64.70;;;;;;4494790;31;20418;-67
2022/07/13 01:05:28;;;;;;;1.38;0.90;;;23.40;64.70;;;;;;4494375;31;20497;-67
2022/07/13 01:07:56;;;;;;;1.13;1.02;;;23.40;64.70;;;;;;4480494;31;20081;-67
2022/07/13 01:10:22;;;;;;;2.33;1.00;;;23.40;64.70;;;;;;4494644;31;20092;-68
2022/07/13 01:12:48;;;;;;;0.95;0.88;;;23.40;64.70;;;;;;4480463;31;20190;-67
2022/07/13 01:15:15;;;;;;;1.27;1.02;;;23.40;64.70;;;;;;4494593;31;20644;-67
2022/07/13 01:17:41;;;;;;;2.67;1.00;;;23.40;64.70;;;;;;4494608;31;20231;-68
2022/07/13 01:20:09;;;;;;;1.08;1.00;;;23.40;64.70;;;;;;4494351;31;20113;-67
2022/07/13 01:22:41;;;;;;;0.98;0.90;;;23.40;64.60;;;;;;4494469;31;20203;-67
2022/07/13 01:25:08;;;;;;;1.20;0.90;;;23.40;64.70;;;;;;4494824;31;20193;-67
2022/07/13 01:27:36;;;;;;;0.88;0.88;;;23.40;64.70;;;;;;4494712;31;20076;-67
2022/07/13 01:30:04;;;;;;;0.90;0.82;;;23.40;64.70;;;;;;4494569;31;20081;-67
2022/07/13 01:32:50;;;;;;;1.13;1.05;;;23.40;64.70;;;;;;4494391;31;20166;-68
2022/07/13 01:35:18;;;;;;;0.82;0.82;;;23.40;64.60;;;;;;4493953;31;20077;-67
2022/07/13 01:37:44;;;;;;;1.48;1.05;;;23.40;64.60;;;;;;4494068;31;20207;-67
2022/07/13 01:40:12;;;;;;;1.27;0.90;;;23.40;64.70;;;;;;4494293;31;20227;-68
2022/07/13 01:42:48;;;;;;;1.17;0.82;;;23.40;64.70;;;;;;4480045;31;20112;-68
2022/07/13 01:45:16;;;;;;;1.08;0.95;;;23.40;64.60;;;;;;4494462;31;20080;-67
2022/07/13 01:47:44;;;;;;;1.73;0.85;;;23.40;64.70;;;;;;4493833;31;20166;-68
2022/07/13 01:50:11;;;;;;;1.38;0.90;;;23.40;64.70;;;;;;4494007;31;20513;-67
2022/07/13 01:52:37;;;;;;;1.27;1.13;;;23.40;64.70;;;;;;4494329;31;20226;-67
2022/07/13 01:55:04;;;;;;;0.95;0.93;;;23.40;65.50;;;;;;4494270;31;20085;-68
2022/07/13 01:57:31;;;;;;;1.23;1.00;;;23.40;64.70;;;;;;4493974;31;20167;-67
2022/07/13 02:00:02;;;;;;;1.48;0.90;;;23.30;64.70;;;;;;4493995;31;20108;-67
2022/07/13 02:02:28;;;;;;;1.10;1.00;;;23.40;64.70;;;;;;4494164;31;20089;-68
2022/07/13 02:04:54;;;;;;;1.05;0.82;;;23.40;64.70;;;;;;4493775;31;20084;-67
2022/07/13 02:07:21;;;;;;;1.13;0.98;;;23.40;64.70;;;;;;4479433;31;20545;-68
2022/07/13 02:09:49;;;;;;;0.98;0.90;;;23.40;64.70;;;;;;4493667;31;20085;-68
2022/07/13 02:12:16;;;;;;;0.80;0.80;;;23.30;64.70;;;;;;4492432;31;20087;-67
2022/07/13 02:14:42;;;;;;;1.10;1.00;;;23.30;64.60;;;;;;4493421;31;20092;-67
2022/07/13 02:17:09;;;;;;;1.10;1.00;;;23.40;64.70;;;;;;4493910;31;20158;-67
2022/07/13 02:19:35;;;;;;;1.00;0.90;;;23.40;64.70;;;;;;4493655;31;20077;-67
2022/07/13 02:22:01;;;;;;;1.13;1.00;;;23.30;64.60;;;;;;4493648;31;20080;-67
2022/07/13 02:24:26;;;;;;;1.17;1.08;;;23.40;64.60;;;;;;4493544;31;20201;-68
2022/07/13 02:26:52;;;;;;;1.33;1.00;;;23.30;64.70;;;;;;4493463;31;20486;-67
2022/07/13 02:29:18;;;;;;;0.90;0.80;;;23.30;64.70;;;;;;4493446;31;20077;-67
2022/07/13 02:31:44;;;;;;;0.82;0.80;;;23.30;64.70;;;;;;4493175;31;20088;-67
2022/07/13 02:34:10;;;;;;;1.08;0.98;;;23.30;64.70;;;;;;4493387;31;20170;-68
2022/07/13 02:36:36;;;;;;;1.08;0.88;;;23.30;64.70;;;;;;4492978;31;20062;-67
2022/07/13 02:39:02;;;;;;;0.95;0.80;;;23.30;64.70;;;;;;4493096;31;20077;-67
2022/07/13 02:41:28;;;;;;;1.05;0.80;;;23.30;64.60;;;;;;4493483;31;20147;-68
2022/07/13 02:43:53;;;;;;;1.02;0.90;;;23.30;64.70;;;;;;4478825;31;20211;-67
2022/07/13 02:46:19;;;;;;;1.20;1.10;;;23.30;64.70;;;;;;4493460;31;20201;-67
2022/07/13 02:48:45;;;;;;;1.80;0.95;;;23.30;64.60;;;;;;4492939;31;20087;-68
2022/07/13 02:51:11;;;;;;;1.00;0.90;;;23.30;64.70;;;;;;4493093;31;20131;-66
2022/07/13 02:53:37;;;;;;;2.15;0.98;;;23.30;64.60;;;;;;4478933;31;20119;-67
2022/07/13 02:56:05;;;;;;;1.05;0.95;;;23.30;64.70;;;;;;4493015;31;20080;-70
2022/07/13 02:58:31;;;;;;;1.00;0.90;;;23.30;64.60;;;;;;4478774;31;20073;-68
2022/07/13 03:00:57;;;;;;;1.25;1.15;;;23.30;64.70;;;;;;4493118;31;20112;-68
2022/07/13 03:03:23;;;;;;;1.08;0.90;;;23.30;64.70;;;;;;4492808;31;20092;-68
2022/07/13 03:05:49;;;;;;;1.10;0.73;;;23.30;64.70;;;;;;4492735;31;20091;-67
2022/07/13 03:08:15;;;;;;;1.08;0.82;;;23.30;64.70;;;;;;4478282;31;20111;-67
2022/07/13 03:10:41;;;;;;;1.17;1.00;;;23.30;64.70;;;;;;4492805;31;20506;-68
2022/07/13 03:13:07;;;;;;;0.80;0.80;;;23.30;64.70;;;;;;4492810;31;20117;-67
2022/07/13 03:15:33;;;;;;;1.10;0.95;;;23.30;64.70;;;;;;4492928;31;20091;-69
2022/07/13 03:17:59;;;;;;;0.98;0.98;;;23.30;64.70;;;;;;4492546;31;20092;-68
2022/07/13 03:20:24;;;;;;;0.80;0.80;;;23.30;64.70;;;;;;4492257;31;20077;-68
2022/07/13 03:22:51;;;;;;;0.95;0.90;;;23.30;64.60;;;;;;4492343;31;20064;-68
2022/07/13 03:25:17;;;;;;;0.80;0.80;;;23.30;64.70;;;;;;4492624;31;20170;-67
2022/07/13 03:27:43;;;;;;;1.00;0.90;;;23.30;64.60;;;;;;4492545;31;20166;-67
2022/07/13 03:30:09;;;;;;;0.90;0.90;;;23.30;64.70;;;;;;4492476;31;20086;-68
2022/07/13 03:32:34;;;;;;;1.20;1.10;;;23.30;64.70;;;;;;4478597;31;20522;-67
2022/07/13 03:35:00;;;;;;;1.42;1.00;;;23.30;64.70;;;;;;4492505;31;20266;-67
2022/07/13 03:37:26;;;;;;;1.05;0.80;;;23.30;64.60;;;;;;4492028;31;20112;-67
2022/07/13 03:39:52;;;;;;;1.10;1.00;;;23.30;64.70;;;;;;4492488;31;20210;-67
2022/07/13 03:42:18;;;;;;;1.15;0.90;;;23.30;64.70;;;;;;4492680;31;20382;-68
2022/07/13 03:44:44;;;;;;;0.73;0.73;;;23.30;64.70;;;;;;4478032;31;20089;-68
2022/07/13 03:47:10;;;;;;;1.08;0.98;;;23.30;64.70;;;;;;4477952;31;20232;-67
2022/07/13 03:49:35;;;;;;;0.80;0.80;;;23.30;64.70;;;;;;4478160;31;20077;-68
2022/07/13 03:52:01;;;;;;;5.82;0.95;;;23.30;64.70;;;;;;4492584;31;20431;-68
2022/07/13 03:54:27;;;;;;;1.30;0.80;;;23.30;64.70;;;;;;4492283;31;20206;-67
2022/07/13 03:56:53;;;;;;;1.00;1.00;;;23.30;64.70;;;;;;4492256;31;20069;-68
2022/07/13 03:59:18;;;;;;;1.02;0.93;;;23.30;64.70;;;;;;4491944;31;20398;-68
2022/07/13 04:01:44;;;;;;;1.25;0.85;;;23.30;64.60;;;;;;4492444;31;20386;-68
2022/07/13 04:04:10;;;;;;;0.70;0.70;;;23.30;64.70;;;;;;4492279;31;20069;-68
2022/07/13 04:06:36;;;;;;;1.15;0.82;;;23.30;64.70;;;;;;4492271;31;20077;-68
2022/07/13 04:09:02;;;;;;;0.85;0.85;;;23.20;64.60;;;;;;4492015;31;20481;-67
2022/07/13 04:11:28;;;;;;;0.85;0.85;;;23.20;64.60;;;;;;4492246;31;20095;-67
2022/07/13 04:13:54;;;;;;;0.80;0.80;;;23.30;64.70;;;;;;4477924;31;20073;-68
2022/07/13 04:16:20;;;;;;;1.15;1.00;;;23.20;64.70;;;;;;4491844;31;20076;-67
2022/07/13 04:18:46;;;;;;;1.23;0.95;;;23.20;64.70;;;;;;4492095;31;20085;-67
2022/07/13 04:21:14;;;;;;;0.80;0.80;;;23.20;64.60;;;;;;4492021;31;20158;-67
2022/07/13 04:23:40;;;;;;;1.05;0.75;;;23.30;64.70;;;;;;4492019;31;20469;-67
2022/07/13 04:26:06;;;;;;;0.93;0.93;;;23.20;64.70;;;;;;4491947;31;20073;-67
2022/07/13 04:28:32;;;;;;;0.82;0.77;;;23.20;64.60;;;;;;4491877;32;20158;-68
2022/07/13 04:30:59;;;;;;;1.25;1.10;;;23.20;64.60;;;;;;4491869;32;20101;-67
2022/07/13 04:33:25;;;;;;;0.90;0.90;;;23.20;64.60;;;;;;4477534;31;20091;-67
2022/07/13 04:35:51;;;;;;;0.90;0.77;;;23.20;64.60;;;;;;4494316;31;20065;-68
2022/07/13 04:38:17;;;;;;;0.90;0.80;;;23.20;64.70;;;;;;4480804;31;20521;-67
2022/07/13 04:40:42;;;;;;;0.90;0.90;;;23.20;64.60;;;;;;4495113;31;20065;-68
2022/07/13 04:43:08;;;;;;;1.05;0.90;;;23.20;64.70;;;;;;4480619;31;20169;-68
2022/07/13 04:45:34;;;;;;;1.10;0.90;;;23.20;64.70;;;;;;4495393;31;20085;-68
2022/07/13 04:48:00;;;;;;;1.20;0.90;;;23.20;64.70;;;;;;4495025;31;20084;-67
2022/07/13 04:50:26;;;;;;;0.95;0.80;;;23.20;64.70;;;;;;4494911;31;20088;-67
2022/07/13 04:52:52;;;;;;;1.17;1.08;;;23.20;64.70;;;;;;4495209;31;20225;-69
2022/07/13 04:55:18;;;;;;;0.95;0.80;;;23.20;64.70;;;;;;4467400;31;20465;-68
2022/07/13 04:57:44;;;;;;;1.73;0.98;;;23.20;64.70;;;;;;4495133;31;20214;-68
2022/07/13 05:00:11;;;;;;;0.90;0.90;;;23.20;64.70;;;;;;4494847;31;20093;-67
2022/07/13 05:02:38;;;;;;;1.00;0.90;;;23.20;64.70;;;;;;4494838;31;20121;-68
2022/07/13 05:05:05;;;;;;;1.15;1.05;;;23.10;64.70;;;;;;4494621;31;20089;-68
2022/07/13 05:07:31;;;;;;;0.80;0.80;;;23.20;64.70;;;;;;4494624;31;20061;-67
2022/07/13 05:09:57;;;;;;;1.10;1.00;;;23.20;64.70;;;;;;4494381;31;20115;-67
2022/07/13 05:12:24;;;;;;;1.00;0.80;;;23.20;64.70;;;;;;4494595;31;20226;-68
2022/07/13 05:14:50;;;;;;;0.88;0.80;;;23.20;64.70;;;;;;4494348;31;20079;-68
2022/07/13 05:17:16;;;;;;;0.73;0.70;;;23.20;64.70;;;;;;4494719;31;20158;-68
2022/07/13 05:19:43;;;;;;;1.10;1.00;;;23.20;64.70;;;;;;4494701;31;20166;-68
2022/07/13 05:22:09;;;;;;;1.20;0.90;;;23.20;64.70;;;;;;4494429;31;20087;-67
2022/07/13 05:24:36;;;;;;;0.90;0.80;;;23.20;64.70;;;;;;4494450;31;20395;-68
2022/07/13 05:27:02;;;;;;;0.90;0.90;;;23.20;64.70;;;;;;4494458;31;20641;-67
2022/07/13 05:29:28;;;;;;;0.90;0.90;;;23.10;64.70;;;;;;4494299;31;20113;-67
2022/07/13 05:31:54;;;;;;;0.70;0.70;;;23.20;64.70;;;;;;4494402;31;20087;-67
2022/07/13 05:34:20;;;;;;;0.73;0.73;;;23.20;64.70;;;;;;4479918;31;20077;-68
2022/07/13 05:36:46;;;;;;;0.90;0.90;;;23.20;64.80;;;;;;4494464;31;20061;-67
2022/07/13 05:39:11;;;;;;;0.80;0.80;;;23.20;64.70;;;;;;4479626;31;20166;-67
2022/07/13 05:41:37;;;;;;;0.82;0.77;;;23.10;64.70;;;;;;4494190;31;20254;-68
2022/07/13 05:44:04;;;;;;;1.00;0.90;;;23.20;64.80;;;;;;4480107;31;20524;-67
2022/07/13 05:46:31;;;;;;;1.02;0.93;;;23.20;64.80;;;;;;4494051;31;20210;-68
2022/07/13 05:48:57;;;;;;;0.95;0.88;;;23.20;64.70;;;;;;4479604;31;20081;-67
2022/07/13 05:51:23;;;;;;;1.80;0.88;;;23.20;64.80;;;;;;4493805;31;20100;-67
2022/07/13 05:53:50;;;;;;;1.05;0.95;;;23.20;64.70;;;;;;4493747;31;20093;-67
2022/07/13 05:56:16;;;;;;;1.00;0.90;;;23.20;64.80;;;;;;4493797;31;20076;-72
2022/07/13 05:58:42;;;;;;;1.00;0.90;;;23.10;64.70;;;;;;4493965;31;20096;-67
2022/07/13 06:01:08;;;;;;;1.27;0.90;;;23.20;64.80;;;;;;4493970;31;20119;-68
2022/07/13 06:03:34;;;;;;;1.23;0.98;;;23.20;64.70;;;;;;4493655;31;20073;-68
2022/07/13 06:05:59;;;;;;;0.98;0.90;;;23.10;64.70;;;;;;4493815;31;20131;-67
2022/07/13 06:08:25;;;;;;;1.35;0.80;;;23.20;64.80;;;;;;4493463;31;20234;-67
2022/07/13 06:10:52;;;;;;;1.10;1.00;;;23.10;64.70;;;;;;4479331;31;20085;-68
2022/07/13 06:13:19;;;;;;;1.23;0.95;;;23.20;64.70;;;;;;4493715;31;20429;-68
2022/07/13 06:15:45;;;;;;;1.00;1.00;;;23.20;64.80;;;;;;4479270;31;20081;-67
2022/07/13 06:18:10;;;;;;;0.88;0.88;;;23.20;64.80;;;;;;4479638;31;20166;-67
2022/07/13 06:20:36;;;;;;;0.80;0.80;;;23.20;64.80;;;;;;4493934;31;20486;-68
2022/07/13 06:23:11;;;;;;;1.08;0.98;;;23.20;64.80;;;;;;4493338;31;20131;-67
2022/07/13 06:25:38;;;;;;;1.10;1.00;;;23.20;64.70;;;;;;4493690;31;20065;-67
2022/07/13 06:28:05;;;;;;;0.90;0.90;;;23.20;64.70;;;;;;4493863;31;20104;-67
2022/07/13 06:30:32;;;;;;;1.52;1.17;;;23.20;64.70;;;;;;4493430;31;20418;-67
2022/07/13 06:32:58;;;;;;;1.23;0.90;;;23.20;64.70;;;;;;4493181;31;20580;-67
2022/07/13 06:35:24;;;;;;;1.08;0.98;;;23.20;64.80;;;;;;4479255;31;20069;-68
2022/07/13 06:37:49;;;;;;;2.65;0.80;;;23.20;64.70;;;;;;4493297;31;20076;-67
2022/07/13 06:40:15;;;;;;;1.08;0.98;;;23.20;64.70;;;;;;4493267;31;20080;-67
2022/07/13 06:42:41;;;;;;;1.10;1.00;;;23.20;64.70;;;;;;4478828;31;20195;-68
2022/07/13 06:45:08;;;;;;;1.10;0.90;;;23.30;64.80;;;;;;4493243;31;20073;-67
2022/07/13 06:47:33;;;;;;;1.77;1.10;;;23.30;64.80;;;;;;4493431;31;20069;-67
2022/07/13 06:49:59;;;;;;;3.88;1.60;;;23.40;64.80;;;;;;4493086;31;20370;-67
2022/07/13 06:52:25;;;;;;;2.00;1.42;;;23.40;64.70;;;;;;4478980;31;20091;-67
2022/07/13 06:54:51;;;;;;;4.70;2.63;;;23.50;64.90;;;;;;4478876;31;20518;-68
2022/07/13 06:57:17;;;;;;;5.13;2.20;;;23.50;65.00;;;;;;4465328;31;20108;-67
2022/07/13 06:59:43;;;;;;;7.75;2.20;;;23.60;65.00;;;;;;4492976;31;20069;-67
2022/07/13 07:02:09;;;;;;;6.68;2.58;;;23.60;65.00;;;;;;4492724;31;20096;-67
2022/07/13 07:04:35;;;;;;;4.65;2.63;;;23.60;65.00;;;;;;4492884;31;20085;-67
2022/07/13 07:07:02;;;;;;;4.40;2.90;;;23.70;65.10;;;;;;4492784;31;20081;-67
2022/07/13 07:09:28;;;;;;;4.55;2.90;;;23.80;65.20;;;;;;4492836;31;20109;-67
2022/07/13 07:11:54;;;;;;;5.40;3.20;;;23.80;65.20;;;;;;4492821;31;20217;-67
2022/07/13 07:14:21;;;;;;;6.15;3.22;;;23.80;65.20;;;;;;4492780;31;20081;-67
2022/07/13 07:16:47;;;;;;;7.70;3.20;;;23.90;65.30;;;;;;4492750;31;20407;-67
2022/07/13 07:19:12;;;;;;;8.57;3.88;;;23.90;65.30;;;;;;4492364;31;20138;-66
2022/07/13 07:21:40;;;;;;;8.55;3.72;;;24.00;65.30;;;;;;4492798;31;20207;-67
2022/07/13 07:24:06;;;;;;;6.95;3.20;;;24.00;65.30;;;;;;4492378;31;20512;-67
2022/07/13 07:26:32;;;;;;;4.68;3.05;;;24.00;65.30;;;;;;4492657;31;20162;-66
2022/07/13 07:28:58;;;;;;;7.95;3.65;;;24.10;65.20;;;;;;4492419;31;20113;-67
2022/07/13 07:31:25;;;;;;;5.30;3.38;;;24.10;65.20;;;;;;4492243;31;20092;-66
2022/07/13 07:33:52;;;;;;;9.68;3.10;;;24.20;65.20;;;;;;4492452;31;20154;-66
2022/07/13 07:36:18;;;;;;;5.68;3.22;;;24.20;65.20;;;;;;4492335;31;20117;-67
2022/07/13 07:38:44;;;;;;;8.98;3.58;;;24.20;65.20;;;;;;4492179;31;20084;-69
2022/07/13 07:41:10;;;;;;;4.60;3.15;;;24.30;65.30;;;;;;4492118;31;20417;-66
2022/07/13 07:43:37;;;;;;;7.47;3.55;;;24.30;65.20;;;;;;4492360;31;20417;-67
2022/07/13 07:46:04;;;;;;;6.15;3.67;;;24.30;65.20;;;;;;4492561;31;20545;-66
2022/07/13 07:48:30;;;;;;;6.35;3.50;;;24.40;65.30;;;;;;4492292;31;20076;-66
2022/07/13 07:50:56;;;;;;;7.85;3.83;;;24.40;65.30;;;;;;4492430;31;20058;-67
2022/07/13 07:53:22;;;;;;;8.00;3.25;;;24.40;65.30;;;;;;4491925;31;20498;-67
2022/07/13 07:55:47;;;;;;;7.10;3.55;;;24.50;65.20;;;;;;4491958;31;20156;-67
2022/07/13 07:58:14;;;;;;;7.05;3.88;;;24.50;65.10;;;;;;4492094;31;20177;-66
2022/07/13 08:00:44;;;;;;;5.60;3.65;;;24.60;65.20;;;;;;4492145;31;20198;-67
2022/07/13 08:03:10;;;;;;;6.75;3.95;;;24.60;65.10;;;;;;4492420;31;20065;-67
2022/07/13 08:05:36;;;;;;;6.95;3.60;;;24.60;65.10;;;;;;4491917;31;20065;-70
2022/07/13 08:08:04;;;;;;;6.88;3.80;;;24.70;65.00;;;;;;4492051;31;20088;-67
2022/07/13 08:10:30;;;;;;;6.53;3.90;;;24.70;64.90;;;;;;4491969;31;20510;-67
2022/07/13 08:12:59;;;;;;;5.00;3.35;;;24.70;64.80;;;;;;4492027;31;20227;-66
2022/07/13 08:15:27;;;;;;;5.03;3.40;;;24.70;64.70;;;;;;4491992;31;20214;-67
2022/07/13 08:17:53;;;;;;;6.53;3.65;;;24.80;64.80;;;;;;4492059;31;20211;-66
2022/07/13 08:20:19;;;;;;;11.40;3.75;;;24.80;64.70;;;;;;4491955;31;20166;-67
2022/07/13 08:22:45;;;;;;;5.20;3.30;;;24.80;64.60;;;;;;4491895;31;20588;-67
2022/07/13 08:25:10;;;;;;;6.78;3.63;;;24.90;64.60;;;;;;4491720;31;20081;-67
2022/07/13 08:27:36;;;;;;;6.40;3.70;;;24.90;64.50;;;;;;4491703;31;20195;-66
2022/07/13 08:30:02;;;;;;;6.00;3.20;;;24.90;64.40;;;;;;4491899;32;20083;-66
2022/07/13 08:32:28;;;;;;;4.90;3.30;;;25.00;64.40;;;;;;4491603;32;20135;-67
2022/07/13 08:40:24;;;;;;;4.82;2.97;;;25.00;64.10;;;;;;4491690;32;20543;-67
2022/07/13 08:42:49;;;;;;;5.85;3.53;;;25.00;64.00;;;;;;4491703;32;20088;-67
2022/07/13 08:45:15;;;;;;;7.45;3.42;;;25.10;64.00;;;;;;4492046;32;20073;-67
2022/07/13 08:47:42;;;;;;;5.30;3.38;;;25.10;63.90;;;;;;4491767;32;20537;-67
2022/07/13 08:50:09;;;;;;;6.55;3.20;;;25.10;63.80;;;;;;4491676;32;20175;-66
2022/07/13 08:52:39;;;;;;;5.00;2.63;;;25.20;63.70;;;;;;4491717;32;20065;-67
2022/07/13 08:55:06;;;;;;;6.25;3.20;;;25.20;63.60;;;;;;4491755;32;20158;-66
2022/07/13 08:57:39;;;;;;;4.15;2.65;;;25.20;63.50;;;;;;4491967;32;20089;-66
2022/07/13 09:00:11;;;;;;;6.93;3.03;;;25.30;63.40;;;;;;4491866;32;20077;-66
2022/07/13 09:02:37;;;;;;;5.10;3.22;;;25.30;63.30;;;;;;4491653;32;20073;-66
2022/07/13 09:05:06;;;;;;;5.43;3.17;;;25.30;63.30;;;;;;4491477;32;20159;-66
2022/07/13 09:07:33;;;;;;;5.57;3.40;;;25.30;63.20;;;;;;4491296;32;20081;-66
2022/07/13 09:10:02;;;;;;;4.75;3.45;;;25.30;63.10;;;;;;4491707;32;20158;-66
2022/07/13 09:12:28;;;;;;;5.22;3.33;;;25.30;63.00;;;;;;4477413;32;20081;-66
2022/07/13 09:15:06;;;;;;;7.10;3.40;;;25.30;63.00;;;;;;4477201;32;20085;-67
2022/07/13 09:17:38;;;;;;;5.30;3.28;;;25.30;62.90;;;;;;4491551;32;20097;-66
2022/07/13 09:20:10;;;;;;;5.10;2.90;;;25.40;62.90;;;;;;4491877;31;20077;-68
2022/07/13 09:22:52;;;;;;;5.28;3.20;;;25.40;62.90;;;;;;4494499;31;20077;-68
2022/07/13 09:25:39;;;;;;;5.30;2.95;;;25.50;62.90;;;;;;4494470;31;20124;-67
2022/07/13 09:28:10;;;;;;;6.38;3.47;;;25.50;62.80;;;;;;4494489;31;20080;-67
2022/07/13 09:30:40;;;;;;;4.75;3.08;;;25.50;62.80;;;;;;4494175;31;20065;-66
2022/07/13 09:33:06;;;;;;;5.85;3.30;;;25.50;62.80;;;;;;4494741;31;20667;-66
2022/07/13 09:35:51;;;;;;;5.40;3.35;;;25.50;62.80;;;;;;4494212;31;20081;-64
2022/07/13 09:38:34;;;;;;;7.45;3.50;;;25.50;62.60;;;;;;4494038;31;20639;-66
2022/07/13 09:41:21;;;;;;;5.50;2.90;;;25.50;62.60;;;;;;4494623;31;20109;-66
2022/07/13 09:46:55;;;;;;;5.70;3.13;;;25.50;62.40;;;;;;4494098;31;20081;-66
2022/07/13 09:49:37;;;;;;;5.65;2.95;;;25.50;62.20;;;;;;4494343;31;20077;-66
2022/07/13 09:52:07;;;;;;;4.57;2.70;;;25.50;62.10;;;;;;4494006;31;20124;-66
2022/07/13 09:54:35;;;;;;;3.20;2.70;;;25.50;62.00;;;;;;4493676;31;20471;-66
2022/07/13 09:57:10;;;;;;;4.88;2.60;;;25.50;62.00;;;;;;4493265;31;20088;-66
2022/07/13 09:59:37;;;;;;;4.80;2.58;;;25.50;61.90;;;;;;4479920;31;20077;-66
2022/07/13 10:02:04;;;;;;;4.47;2.53;;;25.60;61.90;;;;;;4493596;31;20081;-66
2022/07/13 10:04:32;;;;;;;3.92;2.80;;;25.60;61.80;;;;;;4493741;31;20088;-66
2022/07/13 10:06:59;;;;;;;3.45;2.60;;;25.60;61.70;;;;;;4493653;31;20215;-66
2022/07/13 10:09:31;;;;;;;4.35;2.60;;;25.60;61.60;;;;;;4493399;31;20085;-66
2022/07/13 10:12:01;;;;;;;2.75;2.40;;;25.60;61.40;;;;;;4493872;31;20564;-66
2022/07/13 10:14:27;;;;;;;3.67;2.35;;;25.60;61.30;;;;;;4492389;31;20091;-67
2022/07/13 10:17:01;;;;;;;5.60;2.40;;;25.60;61.20;;;;;;4493305;31;20242;-68
2022/07/13 10:19:30;;;;;;;2.97;2.30;;;25.60;61.00;;;;;;4493552;31;20156;-69
2022/07/13 10:22:26;;;;;;;2.75;2.40;;;25.60;61.00;;;;;;4493526;31;20516;-66
2022/07/13 10:24:57;;;;;;;4.28;2.40;;;25.60;60.80;;;;;;4483383;31;20517;-69
2022/07/13 10:27:28;;;;;;;5.55;2.38;;;25.60;60.80;;;;;;4493480;31;20391;-68
2022/07/13 10:29:57;;;;;;;4.63;2.50;;;25.60;60.70;;;;;;4493186;31;20127;-67
2022/07/13 10:32:29;;;;;;;3.13;2.00;;;25.60;60.70;;;;;;4492514;31;20081;-70
2022/07/13 10:35:01;;;;;;;2.65;1.92;;;25.60;60.50;;;;;;4493672;31;20092;-71
2022/07/13 10:37:28;;;;;;;3.25;2.25;;;25.60;60.40;;;;;;4492820;31;20093;-67
2022/07/13 10:40:12;;;;;;;7.10;2.15;;;25.60;60.40;;;;;;4492298;31;20456;-69
2022/07/13 10:42:53;;;;;;;;;;;25.60;60.10;;;;;;4493195;31;20481;-66
2022/07/13 10:45:32;;;;;;;3.70;1.67;;;25.60;60.10;;;;;;4491892;31;19977;-71
2022/07/13 10:48:03;;;;;;;3.95;2.10;;;25.60;60.10;;;;;;4492187;31;20258;-66
2022/07/13 10:50:36;;;;;;;4.45;2.17;;;25.60;60.10;;;;;;4492175;31;20100;-66
2022/07/13 10:53:02;;;;;;;4.55;2.10;;;25.70;60.00;;;;;;4492500;31;20075;-66
2022/07/13 10:55:35;;;;;;;3.47;1.98;;;25.70;60.00;;;;;;4492303;31;20073;-66
2022/07/13 10:58:32;;;;;;;3.47;1.90;;;25.70;60.00;;;;;;4492483;31;20409;-66
2022/07/13 11:00:59;;;;;;;3.35;2.05;;;25.70;60.00;;;;;;4492072;31;20085;-68
2022/07/13 11:03:44;;;;;;;2.50;2.10;;;25.70;60.00;;;;;;4492271;31;20077;-66
2022/07/13 11:06:20;;;;;;;2.10;1.88;;;25.70;60.00;;;;;;4492278;31;20088;-66
2022/07/13 11:09:06;;;;;;;4.13;1.98;;;25.70;60.00;;;;;;4492245;31;20498;-66
2022/07/13 11:11:32;;;;;;;5.88;1.95;;;25.60;60.20;;;;;;4492396;31;20065;-65
2022/07/13 11:13:58;;;;;;;6.13;1.98;;;25.60;60.30;;;;;;4492053;31;20096;-66
2022/07/13 11:16:48;;;;;;;3.60;2.25;;;25.50;60.50;;;;;;4492126;31;20085;-66
2022/07/13 11:19:15;;;;;;;3.70;1.88;;;25.50;60.60;;;;;;4492292;31;20199;-63
2022/07/13 11:22:07;;;;;;;5.22;1.88;;;25.50;60.80;;;;;;4492136;31;20091;-67
2022/07/13 11:27:43;;;;;;;4.53;2.28;;;25.40;61.00;;;;;;4492215;31;20108;-66
2022/07/13 11:30:13;;;;;;;7.15;2.58;;;25.30;61.10;;;;;;4477560;31;20121;-66
2022/07/13 11:32:39;;;;;;;5.63;2.60;;;25.30;61.40;;;;;;4492091;31;20595;-66
2022/07/13 11:35:06;;;;;;;3.88;2.17;;;25.30;61.50;;;;;;4491879;31;20080;-66
2022/07/13 11:37:32;;;;;;;5.50;1.90;;;25.30;61.60;;;;;;4491419;31;20088;-66
2022/07/13 11:39:58;;;;;;;3.92;2.10;;;25.20;61.70;;;;;;4492421;31;20072;-66
2022/07/13 11:42:24;;;;;;;5.05;2.05;;;25.20;61.70;;;;;;4492405;31;20103;-66
2022/07/13 11:44:51;;;;;;;3.45;1.88;;;25.30;61.90;;;;;;4492162;31;20077;-66
2022/07/13 11:47:17;;;;;;;2.80;2.08;;;25.20;61.90;;;;;;4492605;31;20073;-66
2022/07/13 11:49:50;;;;;;;2.38;1.80;;;25.20;61.90;;;;;;4492256;31;20372;-67
2022/07/13 11:52:22;;;;;;;3.78;2.00;;;25.20;61.90;;;;;;4492717;31;20215;-66
2022/07/13 11:54:59;;;;;;;6.68;2.40;;;25.20;62.00;;;;;;4492233;31;20085;-66
2022/07/13 11:57:26;;;;;;;2.70;1.88;;;25.20;62.00;;;;;;4478175;31;20488;-66
2022/07/13 11:59:52;;;;;;;7.22;2.10;;;25.10;62.00;;;;;;4492193;31;20097;-66
2022/07/13 12:02:17;;;;;;;2.78;1.65;;;25.20;62.20;;;;;;4492190;31;20496;-68
2022/07/13 12:04:47;;;;;;;3.28;1.92;;;25.20;62.20;;;;;;4492428;31;20254;-67
2022/07/13 12:07:19;;;;;;;2.00;1.75;;;25.10;62.20;;;;;;4492050;31;20162;-66
2022/07/13 12:09:56;;;;;;;4.75;1.88;;;25.10;62.20;;;;;;4492306;31;20089;-66
2022/07/13 12:12:29;;;;;;;4.20;2.33;;;25.10;62.20;;;;;;4492236;31;20116;-66
2022/07/13 12:14:57;;;;;;;3.95;2.22;;;25.10;62.30;;;;;;4492094;31;20069;-66
2022/07/13 12:17:24;;;;;;;3.17;2.03;;;25.10;62.30;;;;;;4491847;31;20065;-66
2022/07/13 12:19:51;;;;;;;3.22;1.80;;;25.10;62.30;;;;;;4492011;31;20073;-66
2022/07/13 12:22:24;;;;;;;2.22;1.88;;;25.10;62.40;;;;;;4492029;31;20273;-68
2022/07/13 12:24:50;;;;;;;3.40;2.08;;;25.10;62.40;;;;;;4492245;31;20536;-66
2022/07/13 12:27:29;;;;;;;3.08;1.80;;;25.10;62.40;;;;;;4477582;31;20143;-66
2022/07/13 12:30:09;;;;;;;2.25;1.90;;;25.10;62.40;;;;;;4491958;31;20162;-66
2022/07/13 12:33:02;;;;;;;2.67;1.80;;;25.10;62.50;;;;;;4491919;32;20107;-66
2022/07/13 12:35:36;;;;;;;4.57;1.90;;;25.10;62.40;;;;;;4492308;32;20061;-66
2022/07/13 12:38:11;;;;;;;2.65;1.80;;;25.10;62.50;;;;;;4491676;32;20517;-66
2022/07/13 12:40:43;;;;;;;2.63;1.92;;;25.10;62.50;;;;;;4491994;32;20065;-66
2022/07/13 12:43:19;;;;;;;2.22;1.70;;;25.10;62.60;;;;;;4491915;32;20127;-66
2022/07/13 12:45:50;;;;;;;2.65;1.88;;;25.10;62.60;;;;;;4491551;32;20402;-66
2022/07/13 12:48:18;;;;;;;1.98;1.52;;;25.10;62.60;;;;;;4477916;32;20223;-66
2022/07/13 12:51:00;;;;;;;3.80;1.90;;;25.10;62.60;;;;;;4491681;32;20073;-66
2022/07/13 12:53:51;;;;;;;5.75;1.90;;;25.10;62.60;;;;;;4491507;32;20410;-66
2022/07/13 12:56:20;;;;;;;2.60;1.80;;;25.10;62.60;;;;;;4493772;31;20116;-67
2022/07/13 12:58:51;;;;;;;3.83;1.77;;;25.10;62.60;;;;;;4494874;31;20081;-66
2022/07/13 13:01:28;;;;;;;2.88;1.77;;;25.10;62.60;;;;;;4495255;31;20187;-66
2022/07/13 13:03:55;;;;;;;2.25;1.70;;;25.10;62.60;;;;;;4494971;31;20195;-66
2022/07/13 13:06:21;;;;;;;2.65;1.83;;;25.10;62.70;;;;;;4494584;31;20081;-66